ASY101 YPLM-OMDM
Flight info
| Callsign | ASY101 |
|---|---|
| Flight time | N/A |
| Altitude | 40000 |
| Route | LM N640 KAT P570 TVM V29 DOTAT P570 MIXAM P574 DAPOK |
| Aircraft | A332/H-SADE1E2E3GHIJ3J5M1P2RWXY/LB2D1 |
Departure
| Time | N/A |
|---|---|
| Airport | Learmonth Airport (YPLM) |
Arrival
| Time | 2026-05-07 04:56 |
|---|---|
| Airport | Al Minhad Air Base (OMDM) |
| Time | Latitude | Longitude | Altitude | Speed | Heading |
|---|---|---|---|---|---|
| 2026-05-06 22:57 | -4.98632 | 93.21887 | 39839 ft | 478 kts | 313° |
| 2026-05-06 22:58 | -4.94139 | 93.16961 | 39843 ft | 478 kts | 313° |
| 2026-05-06 22:58 | -4.89672 | 93.12064 | 39854 ft | 479 kts | 313° |
| 2026-05-06 22:59 | -4.85151 | 93.07106 | 39859 ft | 480 kts | 313° |
| 2026-05-06 22:59 | -4.80651 | 93.02173 | 39861 ft | 479 kts | 313° |
| 2026-05-06 23:00 | -4.76180 | 92.97273 | 39858 ft | 479 kts | 313° |
| 2026-05-06 23:00 | -4.71684 | 92.92348 | 39857 ft | 478 kts | 313° |
| 2026-05-06 23:01 | -4.67188 | 92.87424 | 39853 ft | 479 kts | 313° |
| 2026-05-06 23:01 | -4.62706 | 92.82515 | 39844 ft | 478 kts | 313° |
| 2026-05-06 23:02 | -4.58213 | 92.77595 | 39841 ft | 479 kts | 313° |
| 2026-05-06 23:02 | -4.53704 | 92.72657 | 39840 ft | 478 kts | 313° |
| 2026-05-06 23:03 | -4.49216 | 92.67744 | 39839 ft | 478 kts | 313° |
| 2026-05-06 23:03 | -4.44733 | 92.62836 | 39841 ft | 479 kts | 313° |
| 2026-05-06 23:04 | -4.40240 | 92.57916 | 39840 ft | 478 kts | 313° |
| 2026-05-06 23:04 | -4.35740 | 92.52996 | 39839 ft | 479 kts | 313° |
| 2026-05-06 23:05 | -4.31237 | 92.48079 | 39840 ft | 478 kts | 313° |
| 2026-05-06 23:05 | -4.26736 | 92.43162 | 39839 ft | 478 kts | 313° |
| 2026-05-06 23:06 | -4.22255 | 92.38265 | 39839 ft | 479 kts | 313° |
| 2026-05-06 23:06 | -4.17751 | 92.33343 | 39840 ft | 479 kts | 313° |
| 2026-05-06 23:07 | -4.13249 | 92.28423 | 39840 ft | 479 kts | 313° |
| 2026-05-06 23:07 | -4.08760 | 92.23516 | 39839 ft | 478 kts | 313° |
| 2026-05-06 23:08 | -4.04266 | 92.18607 | 39839 ft | 477 kts | 313° |
| 2026-05-06 23:08 | -3.99779 | 92.13707 | 39839 ft | 477 kts | 313° |
| 2026-05-06 23:09 | -3.95283 | 92.08797 | 39838 ft | 478 kts | 313° |
| 2026-05-06 23:09 | -3.90794 | 92.03893 | 39835 ft | 479 kts | 313° |
| 2026-05-06 23:10 | -3.86287 | 91.98972 | 39840 ft | 478 kts | 313° |
| 2026-05-06 23:10 | -3.81800 | 91.94073 | 39853 ft | 478 kts | 313° |
| 2026-05-06 23:11 | -3.77312 | 91.89175 | 39857 ft | 478 kts | 313° |
| 2026-05-06 23:11 | -3.72828 | 91.84285 | 39857 ft | 479 kts | 313° |
| 2026-05-06 23:12 | -3.68327 | 91.79373 | 39859 ft | 478 kts | 313° |
| 2026-05-06 23:12 | -3.63822 | 91.74458 | 39861 ft | 478 kts | 313° |
| 2026-05-06 23:13 | -3.59327 | 91.69554 | 39858 ft | 479 kts | 313° |
| 2026-05-06 23:13 | -3.54831 | 91.64652 | 39858 ft | 479 kts | 313° |
| 2026-05-06 23:14 | -3.50316 | 91.59729 | 39861 ft | 480 kts | 313° |
| 2026-05-06 23:14 | -3.45815 | 91.54823 | 39857 ft | 479 kts | 313° |
| 2026-05-06 23:15 | -3.41288 | 91.49886 | 39855 ft | 480 kts | 313° |
| 2026-05-06 23:15 | -3.36791 | 91.44986 | 39853 ft | 480 kts | 313° |
| 2026-05-06 23:16 | -3.32268 | 91.40057 | 39853 ft | 479 kts | 314° |
| 2026-05-06 23:16 | -3.27775 | 91.35162 | 39856 ft | 480 kts | 314° |
| 2026-05-06 23:17 | -3.23250 | 91.30231 | 39857 ft | 480 kts | 314° |
| 2026-05-06 23:17 | -3.18730 | 91.25308 | 39852 ft | 480 kts | 314° |
| 2026-05-06 23:18 | -3.14200 | 91.20376 | 39856 ft | 481 kts | 314° |
| 2026-05-06 23:18 | -3.09698 | 91.15475 | 39855 ft | 481 kts | 314° |
| 2026-05-06 23:19 | -3.05149 | 91.10521 | 39856 ft | 482 kts | 314° |
| 2026-05-06 23:19 | -3.00613 | 91.05583 | 39855 ft | 481 kts | 314° |
| 2026-05-06 23:20 | -2.96099 | 91.00671 | 39861 ft | 482 kts | 314° |
| 2026-05-06 23:20 | -2.91548 | 90.95719 | 39859 ft | 482 kts | 314° |
| 2026-05-06 23:21 | -2.87014 | 90.90786 | 39856 ft | 482 kts | 314° |
| 2026-05-06 23:21 | -2.82496 | 90.85868 | 39846 ft | 481 kts | 314° |
| 2026-05-06 23:22 | -2.77973 | 90.80948 | 39840 ft | 481 kts | 314° |
| 2026-05-06 23:22 | -2.73453 | 90.76031 | 39838 ft | 481 kts | 314° |
| 2026-05-06 23:23 | -2.68909 | 90.71088 | 39838 ft | 481 kts | 314° |
| 2026-05-06 23:23 | -2.64408 | 90.66190 | 39840 ft | 480 kts | 314° |
| 2026-05-06 23:24 | -2.59888 | 90.61272 | 39837 ft | 480 kts | 313° |
| 2026-05-06 23:24 | -2.55369 | 90.56358 | 39836 ft | 481 kts | 313° |
| 2026-05-06 23:25 | -2.50850 | 90.51447 | 39839 ft | 480 kts | 313° |
| 2026-05-06 23:25 | -2.46341 | 90.46543 | 39844 ft | 480 kts | 313° |
| 2026-05-06 23:26 | -2.41823 | 90.41634 | 39843 ft | 480 kts | 313° |
| 2026-05-06 23:26 | -2.37279 | 90.36695 | 39842 ft | 481 kts | 313° |
| 2026-05-06 23:27 | -2.32771 | 90.31794 | 39846 ft | 481 kts | 313° |
| 2026-05-06 23:27 | -2.28236 | 90.26865 | 39846 ft | 480 kts | 313° |
| 2026-05-06 23:28 | -2.23718 | 90.21957 | 39844 ft | 481 kts | 313° |
| 2026-05-06 23:28 | -2.19159 | 90.17006 | 39852 ft | 482 kts | 313° |
| 2026-05-06 23:29 | -2.14645 | 90.12099 | 39851 ft | 483 kts | 313° |
| 2026-05-06 23:29 | -2.10082 | 90.07144 | 39844 ft | 483 kts | 313° |
| 2026-05-06 23:30 | -2.05528 | 90.02192 | 39842 ft | 483 kts | 313° |
| 2026-05-06 23:30 | -2.00991 | 89.97262 | 39836 ft | 483 kts | 313° |
| 2026-05-06 23:31 | -1.96390 | 89.92374 | 39844 ft | 483 kts | 314° |
| 2026-05-06 23:31 | -1.91746 | 89.87540 | 39838 ft | 484 kts | 314° |
| 2026-05-06 23:32 | -1.87063 | 89.82656 | 39840 ft | 484 kts | 314° |
| 2026-05-06 23:32 | -1.82416 | 89.77799 | 39843 ft | 483 kts | 314° |
| 2026-05-06 23:33 | -1.77779 | 89.72947 | 39842 ft | 483 kts | 315° |
| 2026-05-06 23:33 | -1.73128 | 89.68083 | 39838 ft | 484 kts | 315° |
| 2026-05-06 23:34 | -1.68484 | 89.63225 | 39843 ft | 485 kts | 315° |
| 2026-05-06 23:34 | -1.63831 | 89.58357 | 39837 ft | 486 kts | 315° |
| 2026-05-06 23:35 | -1.59149 | 89.53463 | 39838 ft | 487 kts | 315° |
| 2026-05-06 23:35 | -1.54440 | 89.48536 | 39830 ft | 490 kts | 315° |
| 2026-05-06 23:36 | -1.49743 | 89.43624 | 39831 ft | 491 kts | 315° |
| 2026-05-06 23:36 | -1.45019 | 89.38685 | 39829 ft | 492 kts | 315° |
| 2026-05-06 23:37 | -1.40272 | 89.33723 | 39827 ft | 494 kts | 315° |
| 2026-05-06 23:37 | -1.35530 | 89.28761 | 39825 ft | 494 kts | 315° |
| 2026-05-06 23:38 | -1.30800 | 89.23817 | 39826 ft | 495 kts | 316° |
| 2026-05-06 23:38 | -1.26012 | 89.18810 | 39822 ft | 496 kts | 316° |
| 2026-05-06 23:39 | -1.21270 | 89.13854 | 39823 ft | 496 kts | 316° |
| 2026-05-06 23:39 | -1.16473 | 89.08836 | 39822 ft | 497 kts | 315° |
| 2026-05-06 23:40 | -1.11689 | 89.03835 | 39827 ft | 498 kts | 316° |
| 2026-05-06 23:40 | -1.06906 | 88.98832 | 39836 ft | 499 kts | 316° |
| 2026-05-06 23:41 | -1.02108 | 88.93816 | 39838 ft | 500 kts | 316° |
| 2026-05-06 23:41 | -0.97321 | 88.88813 | 39841 ft | 499 kts | 316° |
| 2026-05-06 23:42 | -0.92504 | 88.83775 | 39844 ft | 501 kts | 316° |
| 2026-05-06 23:42 | -0.87677 | 88.78728 | 39841 ft | 502 kts | 316° |
| 2026-05-06 23:43 | -0.82846 | 88.73673 | 39840 ft | 504 kts | 315° |
| 2026-05-06 23:43 | -0.78006 | 88.68607 | 39842 ft | 506 kts | 315° |
| 2026-05-06 23:44 | -0.73146 | 88.63521 | 39836 ft | 507 kts | 315° |
| 2026-05-06 23:44 | -0.68267 | 88.58413 | 39834 ft | 507 kts | 315° |
| 2026-05-06 23:45 | -0.63410 | 88.53331 | 39826 ft | 508 kts | 315° |
| 2026-05-06 23:45 | -0.58527 | 88.48220 | 39822 ft | 509 kts | 316° |
| 2026-05-06 23:46 | -0.53642 | 88.43111 | 39823 ft | 509 kts | 315° |
| 2026-05-06 23:46 | -0.48750 | 88.37991 | 39825 ft | 509 kts | 315° |
| 2026-05-06 23:47 | -0.43843 | 88.32855 | 39820 ft | 511 kts | 315° |
| 2026-05-06 23:47 | -0.38935 | 88.27719 | 39819 ft | 511 kts | 315° |
| 2026-05-06 23:48 | -0.34032 | 88.22588 | 39821 ft | 511 kts | 315° |
| 2026-05-06 23:48 | -0.29135 | 88.17467 | 39822 ft | 511 kts | 315° |
| 2026-05-06 23:49 | -0.24204 | 88.12307 | 39820 ft | 511 kts | 315° |
| 2026-05-06 23:49 | -0.19295 | 88.07170 | 39820 ft | 512 kts | 316° |
| 2026-05-06 23:50 | -0.14398 | 88.02048 | 39821 ft | 512 kts | 315° |
| 2026-05-06 23:50 | -0.07008 | 87.94315 | 39823 ft | 512 kts | 315° |
| 2026-05-06 23:51 | -0.02112 | 87.89191 | 39821 ft | 512 kts | 316° |
| 2026-05-06 23:51 | 0.02817 | 87.84036 | 39817 ft | 511 kts | 316° |
| 2026-05-06 23:52 | 0.07702 | 87.78924 | 39809 ft | 511 kts | 316° |
| 2026-05-06 23:52 | 0.12617 | 87.73783 | 39805 ft | 511 kts | 315° |
| 2026-05-06 23:53 | 0.17526 | 87.68646 | 39814 ft | 511 kts | 315° |
| 2026-05-06 23:53 | 0.22429 | 87.63518 | 39821 ft | 511 kts | 315° |
| 2026-05-06 23:54 | 0.27345 | 87.58370 | 39821 ft | 511 kts | 315° |
| 2026-05-06 23:54 | 0.32269 | 87.53218 | 39819 ft | 511 kts | 315° |
| 2026-05-06 23:55 | 0.37155 | 87.48103 | 39817 ft | 511 kts | 315° |
| 2026-05-06 23:55 | 0.42071 | 87.42954 | 39817 ft | 511 kts | 315° |
| 2026-05-06 23:56 | 0.46972 | 87.37826 | 39816 ft | 511 kts | 315° |
| 2026-05-06 23:56 | 0.51884 | 87.32693 | 39816 ft | 511 kts | 315° |
| 2026-05-06 23:57 | 0.56824 | 87.27531 | 39818 ft | 511 kts | 315° |
| 2026-05-06 23:57 | 0.61723 | 87.22407 | 39819 ft | 511 kts | 315° |
| 2026-05-06 23:58 | 0.66614 | 87.17289 | 39818 ft | 510 kts | 315° |
| 2026-05-06 23:58 | 0.71523 | 87.12151 | 39817 ft | 510 kts | 315° |
| 2026-05-06 23:59 | 0.76427 | 87.07021 | 39816 ft | 510 kts | 315° |
| 2026-05-06 23:59 | 0.81333 | 87.01890 | 39815 ft | 511 kts | 315° |
| 2026-05-07 00:00 | 0.86218 | 86.96777 | 39817 ft | 511 kts | 315° |
| 2026-05-07 00:00 | 0.90303 | 86.92503 | 39818 ft | 511 kts | 315° |
| 2026-05-07 00:01 | 0.96031 | 86.86509 | 39818 ft | 511 kts | 315° |
| 2026-05-07 00:01 | 1.00941 | 86.81370 | 39820 ft | 511 kts | 315° |
| 2026-05-07 00:02 | 1.05869 | 86.76213 | 39827 ft | 511 kts | 315° |
| 2026-05-07 00:02 | 1.10772 | 86.71081 | 39837 ft | 510 kts | 315° |
| 2026-05-07 00:03 | 1.15655 | 86.65969 | 39837 ft | 510 kts | 315° |
| 2026-05-07 00:03 | 1.20562 | 86.60833 | 39838 ft | 510 kts | 315° |
| 2026-05-07 00:04 | 1.25441 | 86.55724 | 39838 ft | 510 kts | 315° |
| 2026-05-07 00:04 | 1.30358 | 86.50576 | 39836 ft | 510 kts | 315° |
| 2026-05-07 00:05 | 1.35228 | 86.45477 | 39838 ft | 510 kts | 315° |
| 2026-05-07 00:05 | 1.40130 | 86.40345 | 39840 ft | 510 kts | 315° |
| 2026-05-07 00:06 | 1.45023 | 86.35220 | 39834 ft | 510 kts | 315° |
| 2026-05-07 00:06 | 1.49925 | 86.30086 | 39832 ft | 510 kts | 315° |
| 2026-05-07 00:07 | 1.54829 | 86.24947 | 39829 ft | 510 kts | 315° |
| 2026-05-07 00:07 | 1.59705 | 86.19838 | 39819 ft | 509 kts | 315° |
| 2026-05-07 00:08 | 1.64574 | 86.14688 | 39816 ft | 509 kts | 314° |
| 2026-05-07 00:08 | 1.69325 | 86.09436 | 39814 ft | 509 kts | 313° |
| 2026-05-07 00:09 | 1.74069 | 86.04167 | 39813 ft | 509 kts | 313° |
| 2026-05-07 00:09 | 1.78787 | 85.98943 | 39818 ft | 509 kts | 313° |
| 2026-05-07 00:10 | 1.83559 | 85.93668 | 39816 ft | 509 kts | 313° |
| 2026-05-07 00:10 | 1.88302 | 85.88428 | 39815 ft | 508 kts | 313° |
| 2026-05-07 00:11 | 1.93031 | 85.83202 | 39818 ft | 508 kts | 313° |
| 2026-05-07 00:11 | 1.97771 | 85.77966 | 39818 ft | 508 kts | 313° |
| 2026-05-07 00:12 | 2.02488 | 85.72752 | 39819 ft | 507 kts | 313° |
| 2026-05-07 00:12 | 2.07215 | 85.67526 | 39816 ft | 508 kts | 313° |
| 2026-05-07 00:13 | 2.11978 | 85.62261 | 39813 ft | 507 kts | 313° |
| 2026-05-07 00:13 | 2.16684 | 85.57059 | 39816 ft | 507 kts | 313° |
| 2026-05-07 00:14 | 2.21399 | 85.51845 | 39818 ft | 506 kts | 313° |
| 2026-05-07 00:14 | 2.26144 | 85.46600 | 39818 ft | 506 kts | 313° |
| 2026-05-07 00:15 | 2.30860 | 85.41385 | 39821 ft | 506 kts | 313° |
| 2026-05-07 00:15 | 2.35569 | 85.36176 | 39822 ft | 506 kts | 313° |
| 2026-05-07 00:16 | 2.40289 | 85.30956 | 39823 ft | 505 kts | 313° |
| 2026-05-07 00:16 | 2.44979 | 85.25768 | 39824 ft | 504 kts | 313° |
| 2026-05-07 00:17 | 2.49673 | 85.20574 | 39827 ft | 504 kts | 313° |
| 2026-05-07 00:17 | 2.54368 | 85.15379 | 39829 ft | 503 kts | 313° |
| 2026-05-07 00:18 | 2.59080 | 85.10166 | 39835 ft | 503 kts | 313° |
| 2026-05-07 00:18 | 2.63740 | 85.05009 | 39838 ft | 503 kts | 313° |
| 2026-05-07 00:19 | 2.68434 | 84.99815 | 39839 ft | 502 kts | 313° |
| 2026-05-07 00:19 | 2.73098 | 84.94652 | 39839 ft | 501 kts | 313° |
| 2026-05-07 00:20 | 2.77764 | 84.89484 | 39832 ft | 500 kts | 313° |
| 2026-05-07 00:20 | 2.82422 | 84.84324 | 39822 ft | 500 kts | 313° |
| 2026-05-07 00:21 | 2.87095 | 84.79150 | 39819 ft | 499 kts | 313° |
| 2026-05-07 00:21 | 2.91730 | 84.74017 | 39818 ft | 500 kts | 313° |
| 2026-05-07 00:22 | 2.96395 | 84.68852 | 39817 ft | 499 kts | 313° |
| 2026-05-07 00:22 | 3.01053 | 84.63693 | 39818 ft | 499 kts | 313° |
| 2026-05-07 00:23 | 3.05717 | 84.58524 | 39818 ft | 499 kts | 313° |
| 2026-05-07 00:23 | 3.10362 | 84.53375 | 39818 ft | 500 kts | 313° |
| 2026-05-07 00:24 | 3.15011 | 84.48221 | 39818 ft | 500 kts | 313° |
| 2026-05-07 00:24 | 3.19677 | 84.43048 | 39818 ft | 500 kts | 313° |
| 2026-05-07 00:25 | 3.24331 | 84.37890 | 39818 ft | 500 kts | 313° |
| 2026-05-07 00:25 | 3.28981 | 84.32732 | 39817 ft | 500 kts | 313° |
| 2026-05-07 00:26 | 3.33656 | 84.27548 | 39818 ft | 500 kts | 313° |
| 2026-05-07 00:26 | 3.38303 | 84.22392 | 39819 ft | 500 kts | 313° |
| 2026-05-07 00:27 | 3.42980 | 84.17203 | 39818 ft | 501 kts | 313° |
| 2026-05-07 00:27 | 3.47645 | 84.12023 | 39819 ft | 501 kts | 313° |
| 2026-05-07 00:28 | 3.52297 | 84.06858 | 39818 ft | 502 kts | 313° |
| 2026-05-07 00:28 | 3.56919 | 84.01617 | 39819 ft | 502 kts | 312° |
| 2026-05-07 00:29 | 3.61491 | 83.96336 | 39819 ft | 501 kts | 312° |
| 2026-05-07 00:30 | 3.70622 | 83.85802 | 39818 ft | 501 kts | 312° |
| 2026-05-07 00:30 | 3.75181 | 83.80545 | 39819 ft | 502 kts | 312° |
| 2026-05-07 00:31 | 3.79760 | 83.75268 | 39818 ft | 502 kts | 312° |
| 2026-05-07 00:31 | 3.84345 | 83.69984 | 39818 ft | 502 kts | 312° |
| 2026-05-07 00:32 | 3.88899 | 83.64733 | 39818 ft | 501 kts | 312° |
| 2026-05-07 00:32 | 3.93454 | 83.59481 | 39818 ft | 499 kts | 312° |
| 2026-05-07 00:33 | 3.98008 | 83.54230 | 39823 ft | 499 kts | 312° |
| 2026-05-07 00:33 | 4.02574 | 83.48962 | 39827 ft | 499 kts | 312° |
| 2026-05-07 00:34 | 4.07120 | 83.43716 | 39831 ft | 500 kts | 312° |
| 2026-05-07 00:34 | 4.11660 | 83.38480 | 39836 ft | 500 kts | 312° |
| 2026-05-07 00:35 | 4.16229 | 83.33206 | 39831 ft | 499 kts | 312° |
| 2026-05-07 00:35 | 4.20768 | 83.27967 | 39827 ft | 498 kts | 312° |
| 2026-05-07 00:36 | 4.25303 | 83.22728 | 39823 ft | 499 kts | 312° |
| 2026-05-07 00:36 | 4.29851 | 83.17477 | 39818 ft | 499 kts | 312° |
| 2026-05-07 00:37 | 4.34374 | 83.12252 | 39818 ft | 499 kts | 312° |
| 2026-05-07 00:37 | 4.38948 | 83.06968 | 39818 ft | 499 kts | 312° |
| 2026-05-07 00:38 | 4.43468 | 83.01746 | 39818 ft | 499 kts | 312° |
| 2026-05-07 00:38 | 4.48024 | 82.96482 | 39819 ft | 498 kts | 312° |
| 2026-05-07 00:39 | 4.52569 | 82.91226 | 39819 ft | 498 kts | 312° |
| 2026-05-07 00:39 | 4.57081 | 82.86009 | 39819 ft | 499 kts | 312° |
| 2026-05-07 00:40 | 4.61632 | 82.80747 | 39819 ft | 499 kts | 312° |
| 2026-05-07 00:40 | 4.66191 | 82.75474 | 39818 ft | 499 kts | 312° |
| 2026-05-07 00:41 | 4.70727 | 82.70225 | 39818 ft | 499 kts | 312° |
| 2026-05-07 00:41 | 4.75258 | 82.64981 | 39818 ft | 499 kts | 312° |
| 2026-05-07 00:42 | 4.79805 | 82.59718 | 39819 ft | 498 kts | 312° |
| 2026-05-07 00:42 | 4.84341 | 82.54468 | 39818 ft | 498 kts | 312° |
| 2026-05-07 00:43 | 4.88878 | 82.49214 | 39818 ft | 498 kts | 312° |
| 2026-05-07 00:43 | 4.93413 | 82.43962 | 39818 ft | 498 kts | 312° |
| 2026-05-07 00:44 | 4.97933 | 82.38724 | 39819 ft | 497 kts | 312° |
| 2026-05-07 00:44 | 5.02445 | 82.33495 | 39818 ft | 496 kts | 312° |
| 2026-05-07 00:45 | 5.06949 | 82.28277 | 39818 ft | 495 kts | 311° |
| 2026-05-07 00:45 | 5.11460 | 82.23048 | 39818 ft | 496 kts | 311° |
| 2026-05-07 00:46 | 5.15987 | 82.17796 | 39818 ft | 497 kts | 311° |
| 2026-05-07 00:46 | 5.20503 | 82.12557 | 39818 ft | 497 kts | 311° |
| 2026-05-07 00:47 | 5.25011 | 82.07328 | 39818 ft | 497 kts | 311° |
| 2026-05-07 00:47 | 5.29528 | 82.02086 | 39818 ft | 497 kts | 311° |
| 2026-05-07 00:48 | 5.34050 | 81.96836 | 39825 ft | 497 kts | 311° |
| 2026-05-07 00:48 | 5.38558 | 81.91601 | 39829 ft | 496 kts | 311° |
| 2026-05-07 00:49 | 5.43062 | 81.86372 | 39830 ft | 496 kts | 311° |
| 2026-05-07 00:49 | 5.47586 | 81.81116 | 39828 ft | 497 kts | 311° |
| 2026-05-07 00:50 | 5.52086 | 81.75885 | 39823 ft | 497 kts | 311° |
| 2026-05-07 00:50 | 5.56600 | 81.70636 | 39816 ft | 497 kts | 311° |
| 2026-05-07 00:51 | 5.61143 | 81.65352 | 39814 ft | 497 kts | 312° |
| 2026-05-07 00:51 | 5.65661 | 81.60117 | 39815 ft | 496 kts | 312° |
| 2026-05-07 00:52 | 5.70165 | 81.54922 | 39812 ft | 496 kts | 312° |
| 2026-05-07 00:52 | 5.74710 | 81.49676 | 39811 ft | 495 kts | 312° |
| 2026-05-07 00:53 | 5.79221 | 81.44461 | 39813 ft | 495 kts | 312° |
| 2026-05-07 00:53 | 5.83712 | 81.39269 | 39816 ft | 494 kts | 312° |
| 2026-05-07 00:54 | 5.88223 | 81.34054 | 39819 ft | 493 kts | 312° |
| 2026-05-07 00:54 | 5.92701 | 81.28873 | 39822 ft | 493 kts | 312° |
| 2026-05-07 00:55 | 5.97185 | 81.23684 | 39819 ft | 492 kts | 312° |
| 2026-05-07 00:55 | 6.01683 | 81.18477 | 39820 ft | 492 kts | 312° |
| 2026-05-07 00:56 | 6.06170 | 81.13277 | 39822 ft | 492 kts | 312° |
| 2026-05-07 00:56 | 6.10643 | 81.08096 | 39829 ft | 491 kts | 312° |
| 2026-05-07 00:57 | 6.15106 | 81.02904 | 39823 ft | 490 kts | 311° |
| 2026-05-07 00:57 | 6.19534 | 80.97729 | 39832 ft | 489 kts | 311° |
| 2026-05-07 00:58 | 6.23977 | 80.92532 | 39837 ft | 490 kts | 311° |
| 2026-05-07 00:58 | 6.28412 | 80.87344 | 39843 ft | 491 kts | 311° |
| 2026-05-07 00:59 | 6.35103 | 80.79512 | 39846 ft | 490 kts | 312° |
| 2026-05-07 01:00 | 6.39519 | 80.74341 | 39862 ft | 490 kts | 312° |
| 2026-05-07 01:00 | 6.43947 | 80.69158 | 39872 ft | 489 kts | 311° |
| 2026-05-07 01:01 | 6.48388 | 80.63958 | 39886 ft | 489 kts | 312° |
| 2026-05-07 01:01 | 6.52882 | 80.58839 | 39907 ft | 490 kts | 313° |
| 2026-05-07 01:02 | 6.57406 | 80.53719 | 39932 ft | 490 kts | 313° |
| 2026-05-07 01:02 | 6.61932 | 80.48586 | 39938 ft | 490 kts | 313° |
| 2026-05-07 01:03 | 6.66445 | 80.43457 | 39926 ft | 490 kts | 313° |
| 2026-05-07 01:03 | 6.70977 | 80.38306 | 39910 ft | 490 kts | 313° |
| 2026-05-07 01:04 | 6.75490 | 80.33171 | 39900 ft | 490 kts | 313° |
| 2026-05-07 01:04 | 6.79998 | 80.28042 | 39888 ft | 490 kts | 313° |
| 2026-05-07 01:05 | 6.84502 | 80.22915 | 39870 ft | 490 kts | 313° |
| 2026-05-07 01:05 | 6.89014 | 80.17776 | 39859 ft | 490 kts | 313° |
| 2026-05-07 01:06 | 6.93536 | 80.12627 | 39857 ft | 490 kts | 313° |
| 2026-05-07 01:06 | 6.98052 | 80.07478 | 39853 ft | 491 kts | 313° |
| 2026-05-07 01:07 | 7.02568 | 80.02332 | 39856 ft | 491 kts | 313° |
| 2026-05-07 01:07 | 7.07062 | 79.97208 | 39848 ft | 489 kts | 313° |
| 2026-05-07 01:08 | 7.11560 | 79.92076 | 39850 ft | 489 kts | 313° |
| 2026-05-07 01:08 | 7.16052 | 79.86922 | 39844 ft | 490 kts | 310° |
| 2026-05-07 01:08 | 7.17933 | 79.84052 | 39840 ft | 493 kts | 299° |
| 2026-05-07 01:09 | 7.19398 | 79.80955 | 39849 ft | 494 kts | 295° |
| 2026-05-07 01:09 | 7.22129 | 79.74625 | 39838 ft | 494 kts | 295° |
| 2026-05-07 01:10 | 7.24969 | 79.68330 | 39837 ft | 495 kts | 296° |
| 2026-05-07 01:10 | 7.27898 | 79.62054 | 39831 ft | 494 kts | 296° |
| 2026-05-07 01:11 | 7.30828 | 79.55847 | 39826 ft | 493 kts | 296° |
| 2026-05-07 01:11 | 7.33784 | 79.49603 | 39833 ft | 493 kts | 296° |
| 2026-05-07 01:12 | 7.36727 | 79.43382 | 39834 ft | 493 kts | 296° |
| 2026-05-07 01:12 | 7.39674 | 79.37151 | 39834 ft | 494 kts | 296° |
| 2026-05-07 01:13 | 7.42616 | 79.30924 | 39834 ft | 495 kts | 296° |
| 2026-05-07 01:13 | 7.45570 | 79.24674 | 39837 ft | 495 kts | 296° |
| 2026-05-07 01:14 | 7.48526 | 79.18407 | 39838 ft | 494 kts | 296° |
| 2026-05-07 01:14 | 7.51462 | 79.12184 | 39836 ft | 492 kts | 295° |
| 2026-05-07 01:15 | 7.54228 | 79.05879 | 39839 ft | 490 kts | 294° |
| 2026-05-07 01:15 | 7.56903 | 78.99604 | 39837 ft | 490 kts | 294° |
| 2026-05-07 01:16 | 7.59605 | 78.93296 | 39839 ft | 491 kts | 294° |
| 2026-05-07 01:16 | 7.62320 | 78.86983 | 39839 ft | 492 kts | 293° |
| 2026-05-07 01:17 | 7.65037 | 78.80657 | 39839 ft | 492 kts | 294° |
| 2026-05-07 01:17 | 7.67738 | 78.74370 | 39840 ft | 491 kts | 294° |
| 2026-05-07 01:18 | 7.70448 | 78.68067 | 39838 ft | 490 kts | 294° |
| 2026-05-07 01:18 | 7.73164 | 78.61752 | 39841 ft | 491 kts | 294° |
| 2026-05-07 01:19 | 7.75872 | 78.55447 | 39840 ft | 491 kts | 294° |
| 2026-05-07 01:19 | 7.78579 | 78.49143 | 39839 ft | 491 kts | 294° |
| 2026-05-07 01:20 | 7.81296 | 78.42808 | 39841 ft | 492 kts | 294° |
| 2026-05-07 01:20 | 7.84000 | 78.36505 | 39841 ft | 492 kts | 294° |
| 2026-05-07 01:21 | 7.86707 | 78.30189 | 39835 ft | 492 kts | 294° |
| 2026-05-07 01:21 | 7.89413 | 78.23869 | 39832 ft | 492 kts | 294° |
| 2026-05-07 01:22 | 7.92126 | 78.17538 | 39823 ft | 492 kts | 294° |
| 2026-05-07 01:22 | 7.94869 | 78.11237 | 39822 ft | 492 kts | 295° |
| 2026-05-07 01:23 | 7.97680 | 78.04945 | 39821 ft | 492 kts | 295° |
| 2026-05-07 01:23 | 8.00474 | 77.98679 | 39823 ft | 491 kts | 295° |
| 2026-05-07 01:24 | 8.03273 | 77.92381 | 39821 ft | 492 kts | 295° |
| 2026-05-07 01:24 | 8.06066 | 77.86092 | 39820 ft | 493 kts | 295° |
| 2026-05-07 01:25 | 8.08874 | 77.79766 | 39821 ft | 493 kts | 295° |
| 2026-05-07 01:25 | 8.11673 | 77.73455 | 39826 ft | 493 kts | 295° |
| 2026-05-07 01:26 | 8.14462 | 77.67162 | 39829 ft | 494 kts | 294° |
| 2026-05-07 01:26 | 8.17260 | 77.60846 | 39831 ft | 495 kts | 295° |
| 2026-05-07 01:27 | 8.20077 | 77.54487 | 39834 ft | 496 kts | 295° |
| 2026-05-07 01:27 | 8.22881 | 77.48153 | 39841 ft | 497 kts | 294° |
| 2026-05-07 01:28 | 8.25702 | 77.41779 | 39846 ft | 497 kts | 294° |
| 2026-05-07 01:28 | 8.28518 | 77.35410 | 39852 ft | 498 kts | 294° |
| 2026-05-07 01:29 | 8.31342 | 77.29019 | 39862 ft | 498 kts | 294° |
| 2026-05-07 01:29 | 8.34149 | 77.22662 | 39872 ft | 498 kts | 294° |
| 2026-05-07 01:30 | 8.36960 | 77.16295 | 39870 ft | 499 kts | 294° |
| 2026-05-07 01:30 | 8.39798 | 77.09865 | 39866 ft | 500 kts | 294° |
| 2026-05-07 01:31 | 8.42612 | 77.03482 | 39858 ft | 500 kts | 294° |
| 2026-05-07 01:31 | 8.45477 | 76.97120 | 39849 ft | 500 kts | 296° |
| 2026-05-07 01:32 | 8.49118 | 76.91143 | 39849 ft | 500 kts | 307° |
| 2026-05-07 01:32 | 8.53663 | 76.85819 | 39850 ft | 500 kts | 314° |
| 2026-05-07 01:33 | 8.58464 | 76.80766 | 39850 ft | 500 kts | 314° |
| 2026-05-07 01:33 | 8.63289 | 76.75690 | 39850 ft | 499 kts | 314° |
| 2026-05-07 01:34 | 8.68088 | 76.70613 | 39848 ft | 500 kts | 314° |
| 2026-05-07 01:34 | 8.72875 | 76.65539 | 39851 ft | 500 kts | 314° |
| 2026-05-07 01:35 | 8.77675 | 76.60444 | 39852 ft | 500 kts | 314° |
| 2026-05-07 01:35 | 8.82435 | 76.55391 | 39854 ft | 498 kts | 314° |
| 2026-05-07 01:36 | 8.87223 | 76.50307 | 39856 ft | 498 kts | 314° |
| 2026-05-07 01:36 | 8.92002 | 76.45227 | 39858 ft | 495 kts | 314° |
| 2026-05-07 01:37 | 8.96716 | 76.40216 | 39860 ft | 492 kts | 314° |
| 2026-05-07 01:37 | 9.01427 | 76.35206 | 39859 ft | 492 kts | 314° |
| 2026-05-07 01:38 | 9.05901 | 76.29936 | 39854 ft | 493 kts | 307° |
| 2026-05-07 01:38 | 9.09691 | 76.24198 | 39857 ft | 491 kts | 303° |
| 2026-05-07 01:39 | 9.13378 | 76.18417 | 39858 ft | 490 kts | 303° |
| 2026-05-07 01:39 | 9.17076 | 76.12626 | 39856 ft | 490 kts | 303° |
| 2026-05-07 01:40 | 9.20775 | 76.06847 | 39856 ft | 490 kts | 303° |
| 2026-05-07 01:40 | 9.24470 | 76.01078 | 39852 ft | 489 kts | 303° |
| 2026-05-07 01:41 | 9.28175 | 75.95292 | 39848 ft | 489 kts | 303° |
| 2026-05-07 01:41 | 9.31864 | 75.89529 | 39843 ft | 488 kts | 303° |
| 2026-05-07 01:42 | 9.35539 | 75.83785 | 39845 ft | 487 kts | 303° |
| 2026-05-07 01:42 | 9.39229 | 75.78011 | 39847 ft | 488 kts | 303° |
| 2026-05-07 01:43 | 9.42905 | 75.72264 | 39844 ft | 487 kts | 303° |
| 2026-05-07 01:43 | 9.46584 | 75.66507 | 39847 ft | 487 kts | 303° |
| 2026-05-07 01:44 | 9.50257 | 75.60757 | 39847 ft | 487 kts | 303° |
| 2026-05-07 01:44 | 9.53936 | 75.54991 | 39851 ft | 490 kts | 303° |
| 2026-05-07 01:45 | 9.57657 | 75.49160 | 39855 ft | 493 kts | 303° |
| 2026-05-07 01:45 | 9.61374 | 75.43333 | 39859 ft | 495 kts | 303° |
| 2026-05-07 01:46 | 9.65120 | 75.37461 | 39858 ft | 496 kts | 303° |
| 2026-05-07 01:46 | 9.68847 | 75.31612 | 39858 ft | 497 kts | 303° |
| 2026-05-07 01:47 | 9.72612 | 75.25700 | 39856 ft | 497 kts | 303° |
| 2026-05-07 01:47 | 9.76344 | 75.19833 | 39858 ft | 497 kts | 303° |
| 2026-05-07 01:48 | 9.80092 | 75.13940 | 39861 ft | 497 kts | 303° |
| 2026-05-07 01:48 | 9.83832 | 75.08060 | 39861 ft | 497 kts | 303° |
| 2026-05-07 01:49 | 9.87558 | 75.02198 | 39866 ft | 497 kts | 303° |
| 2026-05-07 01:49 | 9.91301 | 74.96308 | 39870 ft | 498 kts | 303° |
| 2026-05-07 01:50 | 9.95053 | 74.90399 | 39875 ft | 498 kts | 303° |
| 2026-05-07 01:50 | 9.98797 | 74.84499 | 39877 ft | 497 kts | 303° |
| 2026-05-07 01:51 | 10.02532 | 74.78609 | 39870 ft | 498 kts | 303° |
| 2026-05-07 01:51 | 10.06277 | 74.72698 | 39867 ft | 500 kts | 303° |
| 2026-05-07 01:52 | 10.10045 | 74.66752 | 39867 ft | 500 kts | 303° |
| 2026-05-07 01:52 | 10.13814 | 74.60803 | 39864 ft | 501 kts | 303° |
| 2026-05-07 01:53 | 10.17560 | 74.54886 | 39864 ft | 502 kts | 303° |
| 2026-05-07 01:53 | 10.21335 | 74.48920 | 39864 ft | 503 kts | 303° |
| 2026-05-07 01:54 | 10.25105 | 74.42956 | 39858 ft | 503 kts | 303° |
| 2026-05-07 01:54 | 10.28907 | 74.36939 | 39861 ft | 505 kts | 303° |
| 2026-05-07 01:55 | 10.32683 | 74.30958 | 39855 ft | 505 kts | 303° |
| 2026-05-07 01:55 | 10.36478 | 74.24944 | 39858 ft | 506 kts | 303° |
| 2026-05-07 01:56 | 10.40279 | 74.18935 | 39854 ft | 507 kts | 304° |
| 2026-05-07 01:56 | 10.44366 | 74.13076 | 39851 ft | 507 kts | 306° |
| 2026-05-07 01:57 | 10.48484 | 74.07296 | 39848 ft | 508 kts | 306° |
| 2026-05-07 01:57 | 10.52603 | 74.01488 | 39845 ft | 509 kts | 306° |
| 2026-05-07 01:58 | 10.56742 | 73.95631 | 39844 ft | 511 kts | 306° |
| 2026-05-07 01:58 | 10.60867 | 73.89786 | 39845 ft | 511 kts | 306° |
| 2026-05-07 01:59 | 10.65021 | 73.83889 | 39847 ft | 510 kts | 306° |
| 2026-05-07 01:59 | 10.69122 | 73.78065 | 39844 ft | 510 kts | 306° |
| 2026-05-07 02:00 | 10.73269 | 73.72176 | 39844 ft | 510 kts | 306° |
| 2026-05-07 02:00 | 10.77391 | 73.66317 | 39843 ft | 511 kts | 306° |
| 2026-05-07 02:01 | 10.81519 | 73.60448 | 39845 ft | 511 kts | 305° |
| 2026-05-07 02:01 | 10.85648 | 73.54574 | 39848 ft | 511 kts | 305° |
| 2026-05-07 02:02 | 10.89758 | 73.48721 | 39851 ft | 511 kts | 305° |
| 2026-05-07 02:02 | 10.93875 | 73.42856 | 39856 ft | 510 kts | 305° |
| 2026-05-07 02:03 | 10.97997 | 73.36981 | 39857 ft | 511 kts | 305° |
| 2026-05-07 02:03 | 11.02135 | 73.31082 | 39858 ft | 510 kts | 305° |
| 2026-05-07 02:04 | 11.06245 | 73.25217 | 39860 ft | 510 kts | 305° |
| 2026-05-07 02:04 | 11.10338 | 73.19375 | 39863 ft | 510 kts | 305° |
| 2026-05-07 02:05 | 11.14468 | 73.13475 | 39860 ft | 510 kts | 305° |
| 2026-05-07 02:05 | 11.18584 | 73.07593 | 39862 ft | 510 kts | 305° |
| 2026-05-07 02:06 | 11.22696 | 73.01712 | 39859 ft | 510 kts | 305° |
| 2026-05-07 02:06 | 11.26787 | 72.95857 | 39858 ft | 510 kts | 305° |
| 2026-05-07 02:07 | 11.30905 | 72.89964 | 39858 ft | 509 kts | 305° |
| 2026-05-07 02:07 | 11.37042 | 72.81171 | 39858 ft | 509 kts | 305° |
| 2026-05-07 02:08 | 11.41137 | 72.75301 | 39858 ft | 509 kts | 305° |
| 2026-05-07 02:08 | 11.45222 | 72.69441 | 39858 ft | 509 kts | 305° |
| 2026-05-07 02:09 | 11.49329 | 72.63545 | 39858 ft | 509 kts | 305° |
| 2026-05-07 02:09 | 11.53411 | 72.57684 | 39859 ft | 509 kts | 305° |
| 2026-05-07 02:10 | 11.57508 | 72.51796 | 39859 ft | 509 kts | 305° |
| 2026-05-07 02:10 | 11.61602 | 72.45910 | 39859 ft | 508 kts | 305° |
| 2026-05-07 02:11 | 11.65676 | 72.40047 | 39858 ft | 509 kts | 305° |
| 2026-05-07 02:11 | 11.69774 | 72.34148 | 39858 ft | 509 kts | 304° |
| 2026-05-07 02:12 | 11.73864 | 72.28258 | 39857 ft | 508 kts | 304° |
| 2026-05-07 02:12 | 11.77921 | 72.22408 | 39858 ft | 508 kts | 304° |
| 2026-05-07 02:13 | 11.81994 | 72.16534 | 39864 ft | 508 kts | 304° |
| 2026-05-07 02:13 | 11.86080 | 72.10638 | 39872 ft | 508 kts | 304° |
| 2026-05-07 02:14 | 11.90159 | 72.04745 | 39876 ft | 508 kts | 304° |
| 2026-05-07 02:14 | 11.94223 | 71.98888 | 39879 ft | 508 kts | 305° |
| 2026-05-07 02:15 | 11.98415 | 71.93097 | 39879 ft | 507 kts | 306° |
| 2026-05-07 02:15 | 12.02650 | 71.87293 | 39879 ft | 508 kts | 306° |
| 2026-05-07 02:16 | 12.06833 | 71.81536 | 39878 ft | 508 kts | 306° |
| 2026-05-07 02:16 | 12.11037 | 71.75734 | 39875 ft | 508 kts | 306° |
| 2026-05-07 02:17 | 12.15242 | 71.69925 | 39871 ft | 507 kts | 306° |
| 2026-05-07 02:17 | 12.19408 | 71.64163 | 39868 ft | 507 kts | 306° |
| 2026-05-07 02:18 | 12.23601 | 71.58364 | 39866 ft | 506 kts | 306° |
| 2026-05-07 02:18 | 12.27791 | 71.52563 | 39868 ft | 507 kts | 306° |
| 2026-05-07 02:19 | 12.31952 | 71.46799 | 39869 ft | 506 kts | 306° |
| 2026-05-07 02:19 | 12.36107 | 71.41041 | 39869 ft | 505 kts | 306° |
| 2026-05-07 02:20 | 12.40289 | 71.35240 | 39872 ft | 505 kts | 306° |
| 2026-05-07 02:20 | 12.44448 | 71.29466 | 39872 ft | 506 kts | 306° |
| 2026-05-07 02:21 | 12.48620 | 71.23676 | 39869 ft | 505 kts | 306° |
| 2026-05-07 02:21 | 12.52795 | 71.17888 | 39868 ft | 505 kts | 306° |
| 2026-05-07 02:22 | 12.56959 | 71.12112 | 39868 ft | 505 kts | 306° |
| 2026-05-07 02:22 | 12.61118 | 71.06340 | 39868 ft | 504 kts | 306° |
| 2026-05-07 02:23 | 12.65273 | 71.00567 | 39871 ft | 504 kts | 306° |
| 2026-05-07 02:23 | 12.69433 | 70.94783 | 39872 ft | 505 kts | 306° |
| 2026-05-07 02:24 | 12.73575 | 70.89020 | 39874 ft | 505 kts | 306° |
| 2026-05-07 02:24 | 12.77732 | 70.83234 | 39875 ft | 504 kts | 306° |
| 2026-05-07 02:25 | 12.81878 | 70.77460 | 39872 ft | 505 kts | 306° |
| 2026-05-07 02:25 | 12.86050 | 70.71645 | 39870 ft | 505 kts | 306° |
| 2026-05-07 02:26 | 12.90196 | 70.65863 | 39874 ft | 504 kts | 306° |
| 2026-05-07 02:26 | 12.94325 | 70.60098 | 39879 ft | 504 kts | 306° |
| 2026-05-07 02:27 | 12.98489 | 70.54280 | 39879 ft | 504 kts | 306° |
| 2026-05-07 02:27 | 13.02628 | 70.48495 | 39879 ft | 504 kts | 306° |
| 2026-05-07 02:28 | 13.06761 | 70.42711 | 39879 ft | 504 kts | 306° |
| 2026-05-07 02:28 | 13.10886 | 70.36906 | 39879 ft | 504 kts | 305° |
| 2026-05-07 02:29 | 13.15018 | 70.31084 | 39879 ft | 503 kts | 305° |
| 2026-05-07 02:29 | 13.19137 | 70.25275 | 39879 ft | 504 kts | 305° |
| 2026-05-07 02:30 | 13.23237 | 70.19487 | 39879 ft | 503 kts | 305° |
| 2026-05-07 02:30 | 13.27337 | 70.13699 | 39879 ft | 503 kts | 305° |
| 2026-05-07 02:31 | 13.31457 | 70.07880 | 39879 ft | 503 kts | 305° |
| 2026-05-07 02:31 | 13.35566 | 70.02072 | 39879 ft | 502 kts | 305° |
| 2026-05-07 02:32 | 13.39648 | 69.96298 | 39881 ft | 502 kts | 305° |
| 2026-05-07 02:32 | 13.43767 | 69.90466 | 39880 ft | 502 kts | 305° |
| 2026-05-07 02:33 | 13.47844 | 69.84692 | 39881 ft | 503 kts | 305° |
| 2026-05-07 02:33 | 13.51956 | 69.78863 | 39879 ft | 503 kts | 305° |
| 2026-05-07 02:34 | 13.56056 | 69.73048 | 39881 ft | 502 kts | 305° |
| 2026-05-07 02:34 | 13.60120 | 69.67280 | 39880 ft | 501 kts | 305° |
| 2026-05-07 02:35 | 13.64204 | 69.61478 | 39879 ft | 501 kts | 305° |
| 2026-05-07 02:35 | 13.68302 | 69.55654 | 39879 ft | 501 kts | 305° |
| 2026-05-07 02:36 | 13.72365 | 69.49876 | 39879 ft | 500 kts | 305° |
| 2026-05-07 02:36 | 13.76442 | 69.44076 | 39879 ft | 500 kts | 305° |
| 2026-05-07 02:37 | 13.80503 | 69.38290 | 39878 ft | 499 kts | 305° |
| 2026-05-07 02:37 | 13.84549 | 69.32524 | 39879 ft | 499 kts | 305° |
| 2026-05-07 02:38 | 13.88626 | 69.26711 | 39886 ft | 500 kts | 305° |
| 2026-05-07 02:38 | 13.92664 | 69.20948 | 39894 ft | 500 kts | 305° |
| 2026-05-07 02:39 | 13.96714 | 69.15163 | 39896 ft | 499 kts | 305° |
| 2026-05-07 02:39 | 14.00762 | 69.09376 | 39898 ft | 498 kts | 305° |
| 2026-05-07 02:40 | 14.04817 | 69.03574 | 39899 ft | 497 kts | 304° |
| 2026-05-07 02:40 | 14.08852 | 68.97800 | 39898 ft | 498 kts | 305° |
| 2026-05-07 02:41 | 14.12919 | 68.92040 | 39888 ft | 497 kts | 305° |
| 2026-05-07 02:41 | 14.16971 | 68.86314 | 39882 ft | 497 kts | 305° |
| 2026-05-07 02:42 | 14.21036 | 68.80561 | 39883 ft | 497 kts | 305° |
| 2026-05-07 02:42 | 14.25103 | 68.74796 | 39885 ft | 496 kts | 305° |
| 2026-05-07 02:43 | 14.29139 | 68.69069 | 39884 ft | 496 kts | 305° |
| 2026-05-07 02:43 | 14.33180 | 68.63329 | 39885 ft | 495 kts | 305° |
| 2026-05-07 02:44 | 14.37244 | 68.57555 | 39888 ft | 496 kts | 305° |
| 2026-05-07 02:44 | 14.41265 | 68.51837 | 39889 ft | 496 kts | 305° |
| 2026-05-07 02:45 | 14.45317 | 68.46070 | 39890 ft | 496 kts | 305° |
| 2026-05-07 02:45 | 14.49356 | 68.40320 | 39891 ft | 496 kts | 305° |
| 2026-05-07 02:46 | 14.53394 | 68.34565 | 39891 ft | 496 kts | 305° |
| 2026-05-07 02:46 | 14.57427 | 68.28816 | 39891 ft | 495 kts | 305° |
| 2026-05-07 02:47 | 14.61454 | 68.23068 | 39890 ft | 495 kts | 305° |
| 2026-05-07 02:47 | 14.65501 | 68.17287 | 39886 ft | 495 kts | 305° |
| 2026-05-07 02:48 | 14.69526 | 68.11538 | 39886 ft | 496 kts | 305° |
| 2026-05-07 02:48 | 14.73561 | 68.05768 | 39884 ft | 496 kts | 305° |
| 2026-05-07 02:49 | 14.77579 | 68.00015 | 39884 ft | 496 kts | 305° |
| 2026-05-07 02:49 | 14.81622 | 67.94225 | 39881 ft | 496 kts | 305° |
| 2026-05-07 02:50 | 14.85651 | 67.88450 | 39885 ft | 496 kts | 305° |
| 2026-05-07 02:50 | 14.89682 | 67.82670 | 39886 ft | 496 kts | 305° |
| 2026-05-07 02:51 | 14.93708 | 67.76889 | 39897 ft | 496 kts | 305° |
| 2026-05-07 02:51 | 14.97746 | 67.71089 | 39904 ft | 497 kts | 305° |
| 2026-05-07 02:52 | 15.01764 | 67.65316 | 39910 ft | 497 kts | 305° |
| 2026-05-07 02:52 | 15.05808 | 67.59499 | 39908 ft | 498 kts | 305° |
| 2026-05-07 02:53 | 15.09839 | 67.53693 | 39912 ft | 497 kts | 305° |
| 2026-05-07 02:53 | 15.13871 | 67.47886 | 39912 ft | 496 kts | 305° |
| 2026-05-07 02:54 | 15.17883 | 67.42100 | 39910 ft | 496 kts | 305° |
| 2026-05-07 02:54 | 15.21913 | 67.36284 | 39908 ft | 497 kts | 305° |
| 2026-05-07 02:55 | 15.25916 | 67.30504 | 39904 ft | 497 kts | 305° |
| 2026-05-07 02:55 | 15.29938 | 67.24693 | 39899 ft | 497 kts | 305° |
| 2026-05-07 02:56 | 15.33958 | 67.18881 | 39903 ft | 496 kts | 305° |
| 2026-05-07 02:56 | 15.37978 | 67.13064 | 39899 ft | 496 kts | 305° |
| 2026-05-07 02:57 | 15.41986 | 67.07257 | 39897 ft | 496 kts | 305° |
| 2026-05-07 02:57 | 15.45986 | 67.01457 | 39898 ft | 496 kts | 305° |
| 2026-05-07 02:58 | 15.49983 | 66.95658 | 39898 ft | 496 kts | 305° |
| 2026-05-07 02:58 | 15.53978 | 66.89858 | 39896 ft | 496 kts | 305° |
| 2026-05-07 02:59 | 15.58004 | 66.84010 | 39900 ft | 496 kts | 305° |
| 2026-05-07 02:59 | 15.62028 | 66.78237 | 39900 ft | 496 kts | 306° |
| 2026-05-07 03:00 | 15.66085 | 66.72458 | 39900 ft | 495 kts | 306° |
| 2026-05-07 03:00 | 15.70130 | 66.66684 | 39905 ft | 495 kts | 306° |
| 2026-05-07 03:01 | 15.74182 | 66.60892 | 39906 ft | 495 kts | 306° |
| 2026-05-07 03:01 | 15.78210 | 66.55127 | 39909 ft | 495 kts | 306° |
| 2026-05-07 03:02 | 15.82240 | 66.49355 | 39915 ft | 495 kts | 306° |
| 2026-05-07 03:02 | 15.86270 | 66.43578 | 39916 ft | 495 kts | 306° |
| 2026-05-07 03:03 | 15.90323 | 66.37762 | 39919 ft | 495 kts | 306° |
| 2026-05-07 03:03 | 15.94337 | 66.31999 | 39919 ft | 495 kts | 306° |
| 2026-05-07 03:04 | 15.98385 | 66.26182 | 39920 ft | 495 kts | 306° |
| 2026-05-07 03:04 | 16.02400 | 66.20408 | 39919 ft | 495 kts | 306° |
| 2026-05-07 03:05 | 16.06439 | 66.14597 | 39919 ft | 495 kts | 306° |
| 2026-05-07 03:05 | 16.10445 | 66.08825 | 39919 ft | 495 kts | 306° |
| 2026-05-07 03:06 | 16.14467 | 66.03027 | 39921 ft | 495 kts | 306° |
| 2026-05-07 03:06 | 16.18477 | 65.97243 | 39920 ft | 494 kts | 306° |
| 2026-05-07 03:07 | 16.22513 | 65.91414 | 39911 ft | 494 kts | 306° |
| 2026-05-07 03:07 | 16.26523 | 65.85619 | 39904 ft | 494 kts | 306° |
| 2026-05-07 03:08 | 16.30522 | 65.79837 | 39909 ft | 494 kts | 306° |
| 2026-05-07 03:08 | 16.34511 | 65.74066 | 39913 ft | 494 kts | 306° |
| 2026-05-07 03:09 | 16.38511 | 65.68272 | 39918 ft | 494 kts | 306° |
| 2026-05-07 03:09 | 16.42516 | 65.62466 | 39918 ft | 493 kts | 306° |
| 2026-05-07 03:10 | 16.46506 | 65.56673 | 39920 ft | 493 kts | 306° |
| 2026-05-07 03:10 | 16.50503 | 65.50871 | 39919 ft | 494 kts | 306° |
| 2026-05-07 03:11 | 16.54519 | 65.45039 | 39920 ft | 493 kts | 306° |
| 2026-05-07 03:11 | 16.58496 | 65.39256 | 39920 ft | 493 kts | 306° |
| 2026-05-07 03:12 | 16.62474 | 65.33464 | 39919 ft | 493 kts | 305° |
| 2026-05-07 03:12 | 16.66474 | 65.27636 | 39919 ft | 494 kts | 305° |
| 2026-05-07 03:13 | 16.70479 | 65.21796 | 39919 ft | 494 kts | 305° |
| 2026-05-07 03:13 | 16.74444 | 65.16011 | 39920 ft | 494 kts | 305° |
| 2026-05-07 03:14 | 16.78440 | 65.10175 | 39920 ft | 493 kts | 305° |
| 2026-05-07 03:15 | 16.84406 | 65.01454 | 39920 ft | 492 kts | 305° |
| 2026-05-07 03:15 | 16.88389 | 64.95626 | 39920 ft | 492 kts | 305° |
| 2026-05-07 03:16 | 16.92359 | 64.89812 | 39920 ft | 492 kts | 305° |
| 2026-05-07 03:16 | 16.96322 | 64.84003 | 39920 ft | 492 kts | 305° |
| 2026-05-07 03:17 | 17.00278 | 64.78198 | 39920 ft | 493 kts | 305° |
| 2026-05-07 03:17 | 17.04254 | 64.72360 | 39920 ft | 492 kts | 305° |
| 2026-05-07 03:18 | 17.08214 | 64.66539 | 39920 ft | 492 kts | 305° |
| 2026-05-07 03:18 | 17.12161 | 64.60734 | 39920 ft | 491 kts | 305° |
| 2026-05-07 03:19 | 17.16122 | 64.54903 | 39920 ft | 491 kts | 305° |
| 2026-05-07 03:19 | 17.20062 | 64.49099 | 39920 ft | 491 kts | 305° |
| 2026-05-07 03:20 | 17.24010 | 64.43274 | 39920 ft | 491 kts | 305° |
| 2026-05-07 03:20 | 17.27942 | 64.37470 | 39920 ft | 491 kts | 305° |
| 2026-05-07 03:21 | 17.31956 | 64.31702 | 39920 ft | 491 kts | 306° |
| 2026-05-07 03:21 | 17.36019 | 64.25971 | 39920 ft | 491 kts | 306° |
| 2026-05-07 03:22 | 17.40072 | 64.20240 | 39922 ft | 490 kts | 306° |
| 2026-05-07 03:22 | 17.44131 | 64.14483 | 39925 ft | 491 kts | 306° |
| 2026-05-07 03:23 | 17.48188 | 64.08720 | 39932 ft | 491 kts | 306° |
| 2026-05-07 03:23 | 17.52209 | 64.03001 | 39937 ft | 490 kts | 306° |
| 2026-05-07 03:24 | 17.56239 | 63.97261 | 39940 ft | 490 kts | 306° |
| 2026-05-07 03:24 | 17.60279 | 63.91504 | 39940 ft | 490 kts | 306° |
| 2026-05-07 03:25 | 17.64315 | 63.85751 | 39941 ft | 490 kts | 306° |
| 2026-05-07 03:25 | 17.68348 | 63.79993 | 39941 ft | 490 kts | 306° |
| 2026-05-07 03:26 | 17.72374 | 63.74244 | 39938 ft | 490 kts | 306° |
| 2026-05-07 03:26 | 17.76403 | 63.68482 | 39941 ft | 490 kts | 306° |
| 2026-05-07 03:27 | 17.80416 | 63.62739 | 39938 ft | 490 kts | 306° |
| 2026-05-07 03:27 | 17.84446 | 63.56965 | 39933 ft | 489 kts | 306° |
| 2026-05-07 03:28 | 17.88444 | 63.51234 | 39929 ft | 489 kts | 306° |
| 2026-05-07 03:28 | 17.92458 | 63.45475 | 39923 ft | 489 kts | 306° |
| 2026-05-07 03:29 | 17.96477 | 63.39704 | 39921 ft | 489 kts | 306° |
| 2026-05-07 03:29 | 18.00481 | 63.33949 | 39921 ft | 490 kts | 306° |
| 2026-05-07 03:30 | 18.04499 | 63.28170 | 39920 ft | 490 kts | 306° |
| 2026-05-07 03:30 | 18.08508 | 63.22397 | 39920 ft | 489 kts | 306° |
| 2026-05-07 03:31 | 18.12504 | 63.16636 | 39920 ft | 489 kts | 306° |
| 2026-05-07 03:31 | 18.16509 | 63.10858 | 39920 ft | 489 kts | 306° |
| 2026-05-07 03:32 | 18.20509 | 63.05083 | 39920 ft | 488 kts | 306° |
| 2026-05-07 03:32 | 18.24491 | 62.99328 | 39920 ft | 488 kts | 306° |
| 2026-05-07 03:33 | 18.28495 | 62.93540 | 39920 ft | 488 kts | 306° |
| 2026-05-07 03:33 | 18.32479 | 62.87774 | 39920 ft | 489 kts | 305° |
| 2026-05-07 03:34 | 18.36461 | 62.82002 | 39920 ft | 489 kts | 305° |
| 2026-05-07 03:34 | 18.40460 | 62.76202 | 39920 ft | 489 kts | 306° |
| 2026-05-07 03:35 | 18.44463 | 62.70390 | 39920 ft | 489 kts | 306° |
| 2026-05-07 03:35 | 18.48435 | 62.64617 | 39920 ft | 488 kts | 306° |
| 2026-05-07 03:36 | 18.52409 | 62.58841 | 39920 ft | 488 kts | 306° |
| 2026-05-07 03:36 | 18.56403 | 62.53027 | 39920 ft | 489 kts | 306° |
| 2026-05-07 03:37 | 18.60354 | 62.47251 | 39920 ft | 489 kts | 305° |
| 2026-05-07 03:37 | 18.64308 | 62.41410 | 39920 ft | 489 kts | 305° |
| 2026-05-07 03:38 | 18.68240 | 62.35593 | 39920 ft | 489 kts | 305° |
| 2026-05-07 03:38 | 18.72175 | 62.29769 | 39920 ft | 489 kts | 305° |
| 2026-05-07 03:39 | 18.76131 | 62.23912 | 39920 ft | 489 kts | 305° |
| 2026-05-07 03:39 | 18.80058 | 62.18095 | 39920 ft | 489 kts | 305° |
| 2026-05-07 03:40 | 18.83997 | 62.12252 | 39920 ft | 488 kts | 305° |
| 2026-05-07 03:40 | 18.87935 | 62.06404 | 39920 ft | 489 kts | 305° |
| 2026-05-07 03:41 | 18.91849 | 62.00588 | 39920 ft | 489 kts | 305° |
| 2026-05-07 03:41 | 18.95783 | 61.94735 | 39922 ft | 489 kts | 305° |
| 2026-05-07 03:42 | 18.99712 | 61.88885 | 39921 ft | 489 kts | 305° |
| 2026-05-07 03:42 | 19.03632 | 61.83042 | 39921 ft | 489 kts | 305° |
| 2026-05-07 03:43 | 19.07580 | 61.77155 | 39923 ft | 488 kts | 305° |
| 2026-05-07 03:43 | 19.11476 | 61.71341 | 39922 ft | 488 kts | 305° |
| 2026-05-07 03:44 | 19.15387 | 61.65495 | 39923 ft | 488 kts | 305° |
| 2026-05-07 03:44 | 19.19318 | 61.59613 | 39924 ft | 488 kts | 305° |
| 2026-05-07 03:45 | 19.23211 | 61.53782 | 39919 ft | 487 kts | 305° |
| 2026-05-07 03:45 | 19.27120 | 61.47923 | 39917 ft | 487 kts | 305° |
| 2026-05-07 03:46 | 19.31008 | 61.42092 | 39914 ft | 486 kts | 305° |
| 2026-05-07 03:46 | 19.34903 | 61.36244 | 39916 ft | 486 kts | 305° |
| 2026-05-07 03:47 | 19.38802 | 61.30385 | 39912 ft | 486 kts | 304° |
| 2026-05-07 03:47 | 19.42692 | 61.24533 | 39913 ft | 486 kts | 304° |
| 2026-05-07 03:48 | 19.46554 | 61.18715 | 39908 ft | 486 kts | 304° |
| 2026-05-07 03:48 | 19.50440 | 61.12855 | 39902 ft | 486 kts | 304° |
| 2026-05-07 03:49 | 19.54320 | 61.07002 | 39897 ft | 485 kts | 304° |
| 2026-05-07 03:49 | 19.58198 | 61.01146 | 39901 ft | 485 kts | 304° |
| 2026-05-07 03:50 | 19.62067 | 60.95298 | 39896 ft | 485 kts | 304° |
| 2026-05-07 03:50 | 19.65929 | 60.89453 | 39897 ft | 485 kts | 304° |
| 2026-05-07 03:51 | 19.69802 | 60.83586 | 39897 ft | 484 kts | 304° |
| 2026-05-07 03:51 | 19.73651 | 60.77750 | 39900 ft | 484 kts | 304° |
| 2026-05-07 03:52 | 19.77501 | 60.71907 | 39896 ft | 484 kts | 304° |
| 2026-05-07 03:52 | 19.81358 | 60.66048 | 39896 ft | 484 kts | 304° |
| 2026-05-07 03:53 | 19.85199 | 60.60207 | 39900 ft | 484 kts | 304° |
| 2026-05-07 03:53 | 19.89043 | 60.54355 | 39896 ft | 483 kts | 304° |
| 2026-05-07 03:54 | 19.92883 | 60.48505 | 39898 ft | 483 kts | 304° |
| 2026-05-07 03:54 | 19.96721 | 60.42650 | 39898 ft | 483 kts | 304° |
| 2026-05-07 03:55 | 20.00656 | 60.36880 | 39898 ft | 483 kts | 308° |
| 2026-05-07 03:55 | 20.05162 | 60.31622 | 39900 ft | 483 kts | 315° |
| 2026-05-07 03:56 | 20.10295 | 60.26976 | 39900 ft | 484 kts | 322° |
| 2026-05-07 03:56 | 20.15908 | 60.23044 | 39900 ft | 484 kts | 328° |
| 2026-05-07 03:57 | 20.21733 | 60.19354 | 39900 ft | 484 kts | 328° |
| 2026-05-07 03:57 | 20.27504 | 60.15707 | 39900 ft | 484 kts | 328° |
| 2026-05-07 03:58 | 20.33271 | 60.12049 | 39900 ft | 484 kts | 328° |
| 2026-05-07 03:58 | 20.39087 | 60.08353 | 39900 ft | 483 kts | 328° |
| 2026-05-07 03:59 | 20.44840 | 60.04693 | 39900 ft | 483 kts | 328° |
| 2026-05-07 03:59 | 20.50620 | 60.01010 | 39901 ft | 483 kts | 328° |
| 2026-05-07 04:00 | 20.56396 | 59.97327 | 39899 ft | 484 kts | 328° |
| 2026-05-07 04:00 | 20.62149 | 59.93657 | 39899 ft | 483 kts | 328° |
| 2026-05-07 04:01 | 20.67942 | 59.89955 | 39900 ft | 483 kts | 328° |
| 2026-05-07 04:01 | 20.73696 | 59.86277 | 39897 ft | 482 kts | 328° |
| 2026-05-07 04:02 | 20.79413 | 59.82618 | 39896 ft | 482 kts | 328° |
| 2026-05-07 04:02 | 20.85175 | 59.78928 | 39885 ft | 481 kts | 328° |
| 2026-05-07 04:03 | 20.90922 | 59.75243 | 39886 ft | 481 kts | 328° |
| 2026-05-07 04:03 | 20.96664 | 59.71559 | 39886 ft | 481 kts | 328° |
| 2026-05-07 04:04 | 21.02412 | 59.67867 | 39885 ft | 482 kts | 328° |
| 2026-05-07 04:04 | 21.08167 | 59.64165 | 39885 ft | 482 kts | 328° |
| 2026-05-07 04:05 | 21.13911 | 59.60464 | 39887 ft | 482 kts | 328° |
| 2026-05-07 04:05 | 21.19648 | 59.56766 | 39887 ft | 481 kts | 328° |
| 2026-05-07 04:06 | 21.25371 | 59.53074 | 39889 ft | 481 kts | 328° |
| 2026-05-07 04:06 | 21.31107 | 59.49369 | 39896 ft | 481 kts | 328° |
| 2026-05-07 04:07 | 21.36836 | 59.45665 | 39896 ft | 481 kts | 328° |
| 2026-05-07 04:07 | 21.42574 | 59.41950 | 39897 ft | 481 kts | 328° |
| 2026-05-07 04:08 | 21.48291 | 59.38246 | 39895 ft | 481 kts | 328° |
| 2026-05-07 04:08 | 21.54025 | 59.34528 | 39898 ft | 481 kts | 327° |
| 2026-05-07 04:09 | 21.59768 | 59.30799 | 39900 ft | 480 kts | 327° |
| 2026-05-07 04:09 | 21.65499 | 59.27078 | 39904 ft | 480 kts | 327° |
| 2026-05-07 04:10 | 21.71226 | 59.23358 | 39915 ft | 480 kts | 327° |
| 2026-05-07 04:10 | 21.76918 | 59.19657 | 39921 ft | 480 kts | 327° |
| 2026-05-07 04:11 | 21.82635 | 59.15934 | 39918 ft | 480 kts | 327° |
| 2026-05-07 04:11 | 21.88354 | 59.12207 | 39924 ft | 480 kts | 327° |
| 2026-05-07 04:12 | 21.94079 | 59.08473 | 39934 ft | 479 kts | 327° |
| 2026-05-07 04:12 | 21.99756 | 59.04767 | 39938 ft | 479 kts | 327° |
| 2026-05-07 04:13 | 22.05478 | 59.01026 | 39944 ft | 479 kts | 327° |
| 2026-05-07 04:13 | 22.11183 | 58.97295 | 39947 ft | 479 kts | 327° |
| 2026-05-07 04:14 | 22.16888 | 58.93559 | 39955 ft | 479 kts | 327° |
| 2026-05-07 04:14 | 22.22564 | 58.89838 | 39952 ft | 479 kts | 327° |
| 2026-05-07 04:15 | 22.28277 | 58.86091 | 39956 ft | 479 kts | 327° |
| 2026-05-07 04:15 | 22.33955 | 58.82363 | 39963 ft | 479 kts | 327° |
| 2026-05-07 04:16 | 22.39673 | 58.78605 | 39968 ft | 479 kts | 327° |
| 2026-05-07 04:16 | 22.45338 | 58.74878 | 39971 ft | 479 kts | 327° |
| 2026-05-07 04:17 | 22.51046 | 58.71119 | 39974 ft | 479 kts | 327° |
| 2026-05-07 04:17 | 22.56727 | 58.67375 | 39983 ft | 479 kts | 327° |
| 2026-05-07 04:18 | 22.62435 | 58.63608 | 39992 ft | 479 kts | 327° |
| 2026-05-07 04:18 | 22.68095 | 58.59869 | 39999 ft | 479 kts | 327° |
| 2026-05-07 04:19 | 22.73796 | 58.56101 | 40003 ft | 479 kts | 327° |
| 2026-05-07 04:19 | 22.79507 | 58.52323 | 40014 ft | 479 kts | 327° |
| 2026-05-07 04:20 | 22.85185 | 58.48564 | 40028 ft | 480 kts | 327° |
| 2026-05-07 04:20 | 22.90860 | 58.44803 | 40043 ft | 480 kts | 327° |
| 2026-05-07 04:21 | 22.99398 | 58.39136 | 40071 ft | 479 kts | 327° |
| 2026-05-07 04:21 | 23.05095 | 58.35348 | 40075 ft | 479 kts | 327° |
| 2026-05-07 04:22 | 23.10777 | 58.31567 | 40078 ft | 480 kts | 326° |
| 2026-05-07 04:22 | 23.16461 | 58.27781 | 40078 ft | 480 kts | 326° |
| 2026-05-07 04:23 | 23.22176 | 58.23967 | 40073 ft | 481 kts | 326° |
| 2026-05-07 04:23 | 23.27863 | 58.20169 | 40054 ft | 481 kts | 326° |
| 2026-05-07 04:24 | 23.33559 | 58.16363 | 40012 ft | 480 kts | 326° |
| 2026-05-07 04:24 | 23.39234 | 58.12567 | 39973 ft | 480 kts | 326° |
| 2026-05-07 04:25 | 23.44935 | 58.08748 | 39943 ft | 480 kts | 326° |
| 2026-05-07 04:25 | 23.50628 | 58.04931 | 39915 ft | 480 kts | 326° |
| 2026-05-07 04:26 | 23.56302 | 58.01122 | 39908 ft | 480 kts | 326° |
| 2026-05-07 04:26 | 23.61947 | 57.97255 | 39898 ft | 479 kts | 323° |
| 2026-05-07 04:27 | 23.67242 | 57.92909 | 39879 ft | 477 kts | 317° |
| 2026-05-07 04:27 | 23.72085 | 57.88004 | 39872 ft | 475 kts | 311° |
| 2026-05-07 04:28 | 23.76438 | 57.82585 | 39861 ft | 473 kts | 306° |
| 2026-05-07 04:28 | 23.80492 | 57.76974 | 39856 ft | 472 kts | 306° |
| 2026-05-07 04:29 | 23.84473 | 57.71435 | 39752 ft | 452 kts | 306° |
| 2026-05-07 04:29 | 23.86379 | 57.68785 | 39430 ft | 444 kts | 306° |
| 2026-05-07 04:29 | 23.88278 | 57.66145 | 39099 ft | 436 kts | 306° |
| 2026-05-07 04:30 | 23.90127 | 57.63575 | 38778 ft | 431 kts | 306° |
| 2026-05-07 04:30 | 23.91982 | 57.60992 | 38452 ft | 430 kts | 306° |
| 2026-05-07 04:30 | 23.93811 | 57.58445 | 38155 ft | 430 kts | 306° |
| 2026-05-07 04:30 | 23.95654 | 57.55877 | 37864 ft | 431 kts | 306° |
| 2026-05-07 04:31 | 23.97516 | 57.53282 | 37572 ft | 431 kts | 306° |
| 2026-05-07 04:31 | 23.99290 | 57.50686 | 37270 ft | 430 kts | 303° |
| 2026-05-07 04:31 | 24.00950 | 57.47971 | 36945 ft | 429 kts | 300° |
| 2026-05-07 04:31 | 24.02486 | 57.45202 | 36596 ft | 428 kts | 298° |
| 2026-05-07 04:32 | 24.04016 | 57.42390 | 36136 ft | 429 kts | 298° |
| 2026-05-07 04:32 | 24.05519 | 57.39616 | 35625 ft | 429 kts | 298° |
| 2026-05-07 04:32 | 24.07034 | 57.36818 | 35061 ft | 429 kts | 298° |
| 2026-05-07 04:32 | 24.08557 | 57.34005 | 34490 ft | 429 kts | 298° |
| 2026-05-07 04:33 | 24.10080 | 57.31191 | 33906 ft | 429 kts | 298° |
| 2026-05-07 04:33 | 24.11593 | 57.28394 | 33335 ft | 430 kts | 298° |
| 2026-05-07 04:33 | 24.13121 | 57.25570 | 32743 ft | 431 kts | 298° |
| 2026-05-07 04:33 | 24.14649 | 57.22742 | 32214 ft | 434 kts | 298° |
| 2026-05-07 04:34 | 24.16185 | 57.19898 | 31604 ft | 435 kts | 298° |
| 2026-05-07 04:34 | 24.17708 | 57.17077 | 31095 ft | 432 kts | 298° |
| 2026-05-07 04:34 | 24.19230 | 57.14260 | 30690 ft | 427 kts | 298° |
| 2026-05-07 04:34 | 24.20729 | 57.11483 | 30261 ft | 422 kts | 298° |
| 2026-05-07 04:35 | 24.22204 | 57.08748 | 29825 ft | 419 kts | 298° |
| 2026-05-07 04:35 | 24.23670 | 57.06030 | 29381 ft | 415 kts | 298° |
| 2026-05-07 04:35 | 24.25140 | 57.03301 | 28947 ft | 411 kts | 298° |
| 2026-05-07 04:35 | 24.26573 | 57.00639 | 28490 ft | 408 kts | 298° |
| 2026-05-07 04:36 | 24.28008 | 56.97972 | 28018 ft | 406 kts | 298° |
| 2026-05-07 04:36 | 24.29440 | 56.95307 | 27532 ft | 404 kts | 299° |
| 2026-05-07 04:36 | 24.30860 | 56.92665 | 27027 ft | 402 kts | 299° |
| 2026-05-07 04:36 | 24.32266 | 56.90045 | 26533 ft | 401 kts | 299° |
| 2026-05-07 04:37 | 24.33669 | 56.87432 | 26030 ft | 400 kts | 299° |
| 2026-05-07 04:37 | 24.35089 | 56.84786 | 25522 ft | 399 kts | 299° |
| 2026-05-07 04:37 | 24.36493 | 56.82167 | 25004 ft | 398 kts | 299° |
| 2026-05-07 04:37 | 24.37890 | 56.79560 | 24476 ft | 397 kts | 299° |
| 2026-05-07 04:38 | 24.39270 | 56.76985 | 23964 ft | 396 kts | 299° |
| 2026-05-07 04:38 | 24.40667 | 56.74375 | 23424 ft | 396 kts | 300° |
| 2026-05-07 04:38 | 24.42060 | 56.71773 | 22904 ft | 395 kts | 300° |
| 2026-05-07 04:38 | 24.43442 | 56.69189 | 22395 ft | 394 kts | 300° |
| 2026-05-07 04:39 | 24.44822 | 56.66608 | 21892 ft | 393 kts | 300° |
| 2026-05-07 04:39 | 24.46194 | 56.64039 | 21401 ft | 391 kts | 300° |
| 2026-05-07 04:39 | 24.47562 | 56.61478 | 20926 ft | 390 kts | 300° |
| 2026-05-07 04:39 | 24.48928 | 56.58919 | 20457 ft | 388 kts | 300° |
| 2026-05-07 04:40 | 24.50296 | 56.56356 | 19976 ft | 386 kts | 300° |
| 2026-05-07 04:40 | 24.51648 | 56.53821 | 19479 ft | 386 kts | 300° |
| 2026-05-07 04:40 | 24.52997 | 56.51288 | 18973 ft | 385 kts | 300° |
| 2026-05-07 04:40 | 24.54345 | 56.48757 | 18479 ft | 385 kts | 300° |
| 2026-05-07 04:41 | 24.55684 | 56.46243 | 18000 ft | 384 kts | 301° |
| 2026-05-07 04:41 | 24.57029 | 56.43715 | 17522 ft | 382 kts | 301° |
| 2026-05-07 04:41 | 24.58374 | 56.41186 | 17067 ft | 380 kts | 301° |
| 2026-05-07 04:41 | 24.59692 | 56.38705 | 16611 ft | 379 kts | 301° |
| 2026-05-07 04:42 | 24.61023 | 56.36199 | 16155 ft | 377 kts | 301° |
| 2026-05-07 04:42 | 24.62336 | 56.33725 | 15712 ft | 375 kts | 301° |
| 2026-05-07 04:42 | 24.63640 | 56.31267 | 15273 ft | 374 kts | 301° |
| 2026-05-07 04:42 | 24.64953 | 56.28790 | 14817 ft | 372 kts | 301° |
| 2026-05-07 04:43 | 24.66240 | 56.26362 | 14388 ft | 370 kts | 301° |
| 2026-05-07 04:43 | 24.67539 | 56.23909 | 13953 ft | 369 kts | 301° |
| 2026-05-07 04:43 | 24.68828 | 56.21473 | 13518 ft | 367 kts | 302° |
| 2026-05-07 04:43 | 24.70102 | 56.19067 | 13083 ft | 365 kts | 302° |
| 2026-05-07 04:44 | 24.71372 | 56.16668 | 12649 ft | 364 kts | 302° |
| 2026-05-07 04:44 | 24.72651 | 56.14254 | 12231 ft | 362 kts | 302° |
| 2026-05-07 04:44 | 24.73901 | 56.11892 | 11832 ft | 360 kts | 301° |
| 2026-05-07 04:44 | 24.75154 | 56.09522 | 11441 ft | 357 kts | 301° |
| 2026-05-07 04:45 | 24.76392 | 56.07180 | 11106 ft | 353 kts | 301° |
| 2026-05-07 04:45 | 24.77619 | 56.04855 | 10736 ft | 351 kts | 301° |
| 2026-05-07 04:45 | 24.78845 | 56.02531 | 10348 ft | 349 kts | 301° |
| 2026-05-07 04:45 | 24.80050 | 56.00246 | 9955 ft | 342 kts | 301° |
| 2026-05-07 04:46 | 24.81203 | 55.98057 | 9558 ft | 322 kts | 301° |
| 2026-05-07 04:46 | 24.82297 | 55.95979 | 9195 ft | 305 kts | 301° |
| 2026-05-07 04:46 | 24.83357 | 55.93964 | 8839 ft | 302 kts | 301° |
| 2026-05-07 04:46 | 24.84408 | 55.91967 | 8480 ft | 298 kts | 301° |
| 2026-05-07 04:47 | 24.85431 | 55.90021 | 8131 ft | 295 kts | 301° |
| 2026-05-07 04:47 | 24.86457 | 55.88068 | 7771 ft | 292 kts | 301° |
| 2026-05-07 04:47 | 24.87469 | 55.86142 | 7413 ft | 288 kts | 301° |
| 2026-05-07 04:47 | 24.88456 | 55.84265 | 7068 ft | 284 kts | 300° |
| 2026-05-07 04:48 | 24.89435 | 55.82401 | 6715 ft | 279 kts | 300° |
| 2026-05-07 04:48 | 24.90395 | 55.80573 | 6360 ft | 276 kts | 300° |
| 2026-05-07 04:48 | 24.91361 | 55.78734 | 6049 ft | 276 kts | 300° |
| 2026-05-07 04:48 | 24.92320 | 55.76906 | 5703 ft | 278 kts | 300° |
| 2026-05-07 04:49 | 24.93296 | 55.75048 | 5349 ft | 279 kts | 300° |
| 2026-05-07 04:49 | 24.94267 | 55.73198 | 5005 ft | 281 kts | 300° |
| 2026-05-07 04:49 | 24.95243 | 55.71336 | 4651 ft | 282 kts | 299° |
| 2026-05-07 04:49 | 24.96222 | 55.69466 | 4298 ft | 283 kts | 299° |
| 2026-05-07 04:50 | 24.97205 | 55.67590 | 3951 ft | 284 kts | 298° |
| 2026-05-07 04:50 | 24.98200 | 55.65689 | 3595 ft | 285 kts | 298° |
| 2026-05-07 04:50 | 24.99178 | 55.63820 | 3203 ft | 279 kts | 298° |
| 2026-05-07 04:50 | 25.00130 | 55.62000 | 2849 ft | 269 kts | 297° |
| 2026-05-07 04:51 | 25.01042 | 55.60256 | 2500 ft | 263 kts | 297° |
| 2026-05-07 04:51 | 25.01892 | 55.58474 | 2146 ft | 262 kts | 288° |
| 2026-05-07 04:51 | 25.02293 | 55.56541 | 2005 ft | 250 kts | 272° |
| 2026-05-07 04:51 | 25.02468 | 55.54731 | 2124 ft | 227 kts | 272° |
| 2026-05-07 04:52 | 25.02661 | 55.53076 | 2078 ft | 205 kts | 275° |
| 2026-05-07 04:52 | 25.02822 | 55.51577 | 2007 ft | 187 kts | 273° |
| 2026-05-07 04:52 | 25.02916 | 55.50267 | 2077 ft | 159 kts | 270° |
| 2026-05-07 04:52 | 25.02943 | 55.49113 | 1988 ft | 145 kts | 266° |
| 2026-05-07 04:53 | 25.02904 | 55.48002 | 1726 ft | 146 kts | 263° |
| 2026-05-07 04:53 | 25.02870 | 55.46878 | 1455 ft | 147 kts | 265° |
| 2026-05-07 04:53 | 25.02866 | 55.45784 | 1314 ft | 139 kts | 266° |
| 2026-05-07 04:53 | 25.02870 | 55.44720 | 1166 ft | 137 kts | 265° |
| 2026-05-07 04:54 | 25.02847 | 55.43661 | 969 ft | 138 kts | 263° |
| 2026-05-07 04:54 | 25.02794 | 55.42625 | 789 ft | 136 kts | 263° |
| 2026-05-07 04:54 | 25.02767 | 55.41576 | 679 ft | 136 kts | 265° |
| 2026-05-07 04:54 | 25.02750 | 55.40532 | 570 ft | 137 kts | 266° |
| 2026-05-07 04:55 | 25.02740 | 55.39476 | 352 ft | 137 kts | 264° |
| 2026-05-07 04:55 | 25.02723 | 55.38438 | 183 ft | 132 kts | 264° |
| 2026-05-07 04:55 | 25.02694 | 55.37496 | 165 ft | 110 kts | 268° |
| 2026-05-07 04:55 | 25.02686 | 55.36801 | 158 ft | 72 kts | 269° |
| 2026-05-07 04:56 | 25.02679 | 55.36321 | 153 ft | 51 kts | 276° |
| 2026-05-07 04:56 | 25.02674 | 55.35973 | 148 ft | 44 kts | 267° |
| 2026-05-07 04:56 | 25.02666 | 55.35670 | 145 ft | 25 kts | 261° |
| 2026-05-07 04:56 | 25.02594 | 55.35620 | 144 ft | 10 kts | 159° |
| 2026-05-07 04:57 | 25.02561 | 55.35679 | 145 ft | 9 kts | 96° |
| 2026-05-07 04:57 | 25.02560 | 55.35755 | 146 ft | 7 kts | 90° |
| 2026-05-07 04:57 | 25.02561 | 55.35766 | 146 ft | 1 kts | 89° |
| 2026-05-07 04:57 | 25.02561 | 55.35786 | 146 ft | 3 kts | 89° |
| 2026-05-07 04:58 | 25.02561 | 55.35791 | 146 ft | 0 kts | 89° |